sensor_id;sensor_type;location;lat;lon;timestamp;pressure;altitude;pressure_sealevel;temperature;humidity
44103;BME280;29769;42.178;24.742;2023-10-09T00:01:02;99880.75;;;20.76;56.89
44103;BME280;29769;42.178;24.742;2023-10-09T00:03:57;99877.72;;;20.49;58.53
44103;BME280;29769;42.178;24.742;2023-10-09T00:06:45;99877.84;;;20.30;59.83
44103;BME280;29769;42.178;24.742;2023-10-09T00:09:30;99874.34;;;20.28;59.44
44103;BME280;29769;42.178;24.742;2023-10-09T00:12:16;99889.53;;;20.28;59.65
44103;BME280;29769;42.178;24.742;2023-10-09T00:15:01;99894.22;;;20.23;59.89
44103;BME280;29769;42.178;24.742;2023-10-09T00:17:55;99897.22;;;20.17;60.50
44103;BME280;29769;42.178;24.742;2023-10-09T00:20:42;99902.00;;;20.10;61.20
44103;BME280;29769;42.178;24.742;2023-10-09T00:23:27;99899.81;;;20.01;62.35
44103;BME280;29769;42.178;24.742;2023-10-09T00:26:12;99899.56;;;19.88;63.83
44103;BME280;29769;42.178;24.742;2023-10-09T00:29:11;99907.88;;;19.82;64.49
44103;BME280;29769;42.178;24.742;2023-10-09T00:31:59;99901.19;;;19.74;65.26
44103;BME280;29769;42.178;24.742;2023-10-09T00:35:02;99889.94;;;19.67;65.78
44103;BME280;29769;42.178;24.742;2023-10-09T00:38:07;99904.59;;;19.59;67.03
44103;BME280;29769;42.178;24.742;2023-10-09T00:41:05;99908.06;;;19.42;68.75
44103;BME280;29769;42.178;24.742;2023-10-09T00:43:52;99910.78;;;19.22;70.35
44103;BME280;29769;42.178;24.742;2023-10-09T00:46:37;99902.44;;;19.10;71.26
44103;BME280;29769;42.178;24.742;2023-10-09T00:49:26;99901.94;;;19.02;72.53
44103;BME280;29769;42.178;24.742;2023-10-09T00:52:11;99907.47;;;18.98;72.73
44103;BME280;29769;42.178;24.742;2023-10-09T00:55:02;99909.19;;;18.99;71.91
44103;BME280;29769;42.178;24.742;2023-10-09T00:57:52;99910.66;;;19.06;70.75
44103;BME280;29769;42.178;24.742;2023-10-09T01:00:49;99913.09;;;19.10;69.37
44103;BME280;29769;42.178;24.742;2023-10-09T01:03:36;99907.84;;;19.09;67.84
44103;BME280;29769;42.178;24.742;2023-10-09T01:06:24;99912.75;;;19.18;66.57
44103;BME280;29769;42.178;24.742;2023-10-09T01:09:15;99917.41;;;19.32;64.87
44103;BME280;29769;42.178;24.742;2023-10-09T01:12:07;99910.66;;;19.62;61.85
44103;BME280;29769;42.178;24.742;2023-10-09T01:14:52;99911.97;;;19.89;58.83
44103;BME280;29769;42.178;24.742;2023-10-09T01:17:40;99908.44;;;20.23;55.67
44103;BME280;29769;42.178;24.742;2023-10-09T01:20:29;99922.56;;;20.44;54.60
44103;BME280;29769;42.178;24.742;2023-10-09T01:23:20;99929.53;;;20.47;54.28
44103;BME280;29769;42.178;24.742;2023-10-09T01:26:05;99937.56;;;20.47;53.99
44103;BME280;29769;42.178;24.742;2023-10-09T01:28:49;99933.94;;;20.48;54.12
44103;BME280;29769;42.178;24.742;2023-10-09T01:31:34;99939.66;;;20.40;54.58
44103;BME280;29769;42.178;24.742;2023-10-09T01:37:23;99952.50;;;20.33;55.32
44103;BME280;29769;42.178;24.742;2023-10-09T01:40:08;99970.16;;;20.36;55.47
44103;BME280;29769;42.178;24.742;2023-10-09T01:43:21;99981.84;;;20.16;56.79
44103;BME280;29769;42.178;24.742;2023-10-09T01:46:06;99989.56;;;20.04;57.50
44103;BME280;29769;42.178;24.742;2023-10-09T01:48:51;99982.66;;;19.99;57.64
44103;BME280;29769;42.178;24.742;2023-10-09T01:51:38;99987.88;;;19.84;58.25
44103;BME280;29769;42.178;24.742;2023-10-09T01:54:23;99998.78;;;19.79;58.48
44103;BME280;29769;42.178;24.742;2023-10-09T01:57:22;100000.38;;;19.65;59.67
44103;BME280;29769;42.178;24.742;2023-10-09T02:00:07;100003.31;;;19.59;60.20
44103;BME280;29769;42.178;24.742;2023-10-09T02:02:57;100006.22;;;19.54;60.41
44103;BME280;29769;42.178;24.742;2023-10-09T02:05:47;100015.50;;;19.45;60.43
44103;BME280;29769;42.178;24.742;2023-10-09T02:08:31;100026.56;;;19.36;60.96
44103;BME280;29769;42.178;24.742;2023-10-09T02:11:20;100026.31;;;19.22;62.76
44103;BME280;29769;42.178;24.742;2023-10-09T02:14:21;100031.81;;;18.99;63.40
44103;BME280;29769;42.178;24.742;2023-10-09T02:17:09;100037.66;;;18.88;64.25
44103;BME280;29769;42.178;24.742;2023-10-09T02:19:56;100060.75;;;18.88;63.98
44103;BME280;29769;42.178;24.742;2023-10-09T02:22:44;100068.91;;;18.85;65.97
44103;BME280;29769;42.178;24.742;2023-10-09T02:25:28;100086.88;;;18.36;71.03
44103;BME280;29769;42.178;24.742;2023-10-09T02:28:18;100086.25;;;16.64;79.67
44103;BME280;29769;42.178;24.742;2023-10-09T02:31:10;100113.38;;;16.18;83.50
44103;BME280;29769;42.178;24.742;2023-10-09T02:33:55;100141.03;;;15.81;86.27
44103;BME280;29769;42.178;24.742;2023-10-09T02:36:40;100153.88;;;15.66;87.18
44103;BME280;29769;42.178;24.742;2023-10-09T02:39:33;100163.50;;;15.36;87.59
44103;BME280;29769;42.178;24.742;2023-10-09T02:42:21;100161.00;;;15.31;86.91
44103;BME280;29769;42.178;24.742;2023-10-09T02:45:11;100165.88;;;15.14;86.85
44103;BME280;29769;42.178;24.742;2023-10-09T02:48:00;100160.03;;;15.01;88.08
44103;BME280;29769;42.178;24.742;2023-10-09T02:50:53;100179.72;;;14.91;88.41
44103;BME280;29769;42.178;24.742;2023-10-09T02:53:38;100193.06;;;14.87;88.06
44103;BME280;29769;42.178;24.742;2023-10-09T02:56:26;100196.63;;;14.86;87.36
44103;BME280;29769;42.178;24.742;2023-10-09T02:59:43;100201.91;;;14.86;86.98
44103;BME280;29769;42.178;24.742;2023-10-09T03:02:29;100210.91;;;14.80;86.60
44103;BME280;29769;42.178;24.742;2023-10-09T03:05:16;100210.28;;;14.69;86.70
44103;BME280;29769;42.178;24.742;2023-10-09T03:08:00;100209.69;;;14.56;86.69
44103;BME280;29769;42.178;24.742;2023-10-09T03:10:46;100210.63;;;14.54;86.55
44103;BME280;29769;42.178;24.742;2023-10-09T03:13:32;100224.75;;;14.54;85.88
44103;BME280;29769;42.178;24.742;2023-10-09T03:16:17;100226.56;;;14.52;85.22
44103;BME280;29769;42.178;24.742;2023-10-09T03:19:04;100230.41;;;14.38;85.67
44103;BME280;29769;42.178;24.742;2023-10-09T03:21:49;100221.69;;;14.33;86.21
44103;BME280;29769;42.178;24.742;2023-10-09T03:24:34;100235.03;;;14.26;86.35
44103;BME280;29769;42.178;24.742;2023-10-09T03:27:19;100244.78;;;14.24;86.93
44103;BME280;29769;42.178;24.742;2023-10-09T03:30:04;100246.50;;;14.27;86.38
44103;BME280;29769;42.178;24.742;2023-10-09T03:32:53;100254.41;;;14.29;86.01
44103;BME280;29769;42.178;24.742;2023-10-09T03:35:38;100253.63;;;14.23;86.23
44103;BME280;29769;42.178;24.742;2023-10-09T03:38:23;100253.66;;;14.22;86.72
44103;BME280;29769;42.178;24.742;2023-10-09T03:41:08;100264.34;;;14.17;86.85
44103;BME280;29769;42.178;24.742;2023-10-09T03:43:57;100261.56;;;14.23;86.96
44103;BME280;29769;42.178;24.742;2023-10-09T03:46:41;100265.97;;;14.24;87.03
44103;BME280;29769;42.178;24.742;2023-10-09T03:49:28;100272.16;;;14.23;86.57
44103;BME280;29769;42.178;24.742;2023-10-09T03:52:14;100277.34;;;14.28;84.91
44103;BME280;29769;42.178;24.742;2023-10-09T03:55:01;100276.63;;;14.21;83.49
44103;BME280;29769;42.178;24.742;2023-10-09T03:57:46;100274.97;;;14.16;81.21
44103;BME280;29769;42.178;24.742;2023-10-09T04:00:32;100280.41;;;14.08;80.56
44103;BME280;29769;42.178;24.742;2023-10-09T04:03:25;100287.53;;;14.05;79.74
44103;BME280;29769;42.178;24.742;2023-10-09T04:06:10;100292.72;;;14.11;77.92
44103;BME280;29769;42.178;24.742;2023-10-09T04:08:55;100293.97;;;13.90;75.62
44103;BME280;29769;42.178;24.742;2023-10-09T04:11:40;100287.88;;;13.87;74.97
44103;BME280;29769;42.178;24.742;2023-10-09T04:14:30;100296.78;;;13.82;74.11
44103;BME280;29769;42.178;24.742;2023-10-09T04:17:18;100292.44;;;13.78;74.21
44103;BME280;29769;42.178;24.742;2023-10-09T04:20:17;100294.31;;;13.73;73.89
44103;BME280;29769;42.178;24.742;2023-10-09T04:23:02;100299.66;;;13.70;73.70
44103;BME280;29769;42.178;24.742;2023-10-09T04:25:50;100305.91;;;13.66;73.87
44103;BME280;29769;42.178;24.742;2023-10-09T04:28:35;100321.69;;;13.71;74.01
44103;BME280;29769;42.178;24.742;2023-10-09T04:31:20;100332.44;;;13.62;74.21
44103;BME280;29769;42.178;24.742;2023-10-09T04:34:06;100320.16;;;13.58;73.45
44103;BME280;29769;42.178;24.742;2023-10-09T04:37:14;100319.25;;;13.59;73.20
44103;BME280;29769;42.178;24.742;2023-10-09T04:39:59;100332.50;;;13.57;72.28
44103;BME280;29769;42.178;24.742;2023-10-09T04:43:16;100333.53;;;13.49;70.29
44103;BME280;29769;42.178;24.742;2023-10-09T04:46:06;100328.25;;;13.49;69.43
44103;BME280;29769;42.178;24.742;2023-10-09T04:48:51;100338.91;;;13.43;69.45
44103;BME280;29769;42.178;24.742;2023-10-09T04:51:36;100331.88;;;13.42;68.89
44103;BME280;29769;42.178;24.742;2023-10-09T04:54:39;100342.47;;;13.40;68.50
44103;BME280;29769;42.178;24.742;2023-10-09T04:57:45;100354.78;;;13.43;68.28
44103;BME280;29769;42.178;24.742;2023-10-09T05:00:44;100356.56;;;13.41;67.74
44103;BME280;29769;42.178;24.742;2023-10-09T05:03:46;100359.19;;;13.42;67.34
44103;BME280;29769;42.178;24.742;2023-10-09T05:06:37;100353.84;;;13.45;66.52
44103;BME280;29769;42.178;24.742;2023-10-09T05:09:39;100363.28;;;13.60;65.75
44103;BME280;29769;42.178;24.742;2023-10-09T05:12:40;100359.09;;;13.47;65.83
44103;BME280;29769;42.178;24.742;2023-10-09T05:15:31;100374.97;;;13.47;65.24
44103;BME280;29769;42.178;24.742;2023-10-09T05:18:19;100368.00;;;13.41;65.57
44103;BME280;29769;42.178;24.742;2023-10-09T05:21:11;100371.44;;;13.46;65.22
44103;BME280;29769;42.178;24.742;2023-10-09T05:24:28;100367.84;;;13.52;64.31
44103;BME280;29769;42.178;24.742;2023-10-09T05:27:26;100382.81;;;13.53;64.99
44103;BME280;29769;42.178;24.742;2023-10-09T05:30:29;100397.78;;;13.52;63.91
44103;BME280;29769;42.178;24.742;2023-10-09T05:33:18;100394.47;;;13.40;63.94
44103;BME280;29769;42.178;24.742;2023-10-09T05:36:17;100401.44;;;13.44;63.96
44103;BME280;29769;42.178;24.742;2023-10-09T05:39:05;100408.50;;;13.43;63.66
44103;BME280;29769;42.178;24.742;2023-10-09T05:42:03;100410.34;;;13.40;62.13
44103;BME280;29769;42.178;24.742;2023-10-09T05:44:54;100414.66;;;13.44;61.37
44103;BME280;29769;42.178;24.742;2023-10-09T05:47:57;100417.38;;;13.39;60.20
44103;BME280;29769;42.178;24.742;2023-10-09T05:50:42;100419.09;;;13.40;59.65
44103;BME280;29769;42.178;24.742;2023-10-09T05:53:50;100419.97;;;13.41;59.18
44103;BME280;29769;42.178;24.742;2023-10-09T05:56:56;100431.41;;;13.44;58.35
44103;BME280;29769;42.178;24.742;2023-10-09T05:59:59;100434.66;;;13.58;57.85
44103;BME280;29769;42.178;24.742;2023-10-09T06:03:03;100432.13;;;14.04;56.17
44103;BME280;29769;42.178;24.742;2023-10-09T06:06:06;100445.66;;;14.84;53.19
44103;BME280;29769;42.178;24.742;2023-10-09T06:08:51;100460.66;;;14.85;52.46
44103;BME280;29769;42.178;24.742;2023-10-09T06:11:54;100460.72;;;15.22;50.91
44103;BME280;29769;42.178;24.742;2023-10-09T06:14:38;100470.78;;;15.06;51.33
44103;BME280;29769;42.178;24.742;2023-10-09T06:17:23;100475.88;;;14.74;51.98
44103;BME280;29769;42.178;24.742;2023-10-09T06:20:08;100482.25;;;14.64;53.24
44103;BME280;29769;42.178;24.742;2023-10-09T06:23:13;100495.09;;;14.38;53.30
44103;BME280;29769;42.178;24.742;2023-10-09T06:26:00;100498.97;;;14.17;54.15
44103;BME280;29769;42.178;24.742;2023-10-09T06:28:50;100514.00;;;14.13;54.50
44103;BME280;29769;42.178;24.742;2023-10-09T06:31:55;100520.31;;;14.06;54.45
44103;BME280;29769;42.178;24.742;2023-10-09T06:34:50;100515.69;;;14.17;54.51
44103;BME280;29769;42.178;24.742;2023-10-09T06:37:41;100521.84;;;14.18;54.50
44103;BME280;29769;42.178;24.742;2023-10-09T06:40:47;100534.28;;;14.14;55.00
44103;BME280;29769;42.178;24.742;2023-10-09T06:43:50;100541.16;;;14.24;54.47
44103;BME280;29769;42.178;24.742;2023-10-09T06:46:37;100548.06;;;14.33;54.47
44103;BME280;29769;42.178;24.742;2023-10-09T06:49:28;100549.84;;;14.33;54.42
44103;BME280;29769;42.178;24.742;2023-10-09T06:52:17;100552.16;;;14.54;54.22
44103;BME280;29769;42.178;24.742;2023-10-09T06:55:23;100561.75;;;14.59;53.95
44103;BME280;29769;42.178;24.742;2023-10-09T06:58:18;100573.22;;;14.60;53.90
44103;BME280;29769;42.178;24.742;2023-10-09T07:01:13;100576.34;;;14.83;53.47
44103;BME280;29769;42.178;24.742;2023-10-09T07:04:23;100580.38;;;15.45;52.06
44103;BME280;29769;42.178;24.742;2023-10-09T07:07:17;100580.53;;;15.81;50.85
44103;BME280;29769;42.178;24.742;2023-10-09T07:10:03;100570.47;;;17.00;47.09
44103;BME280;29769;42.178;24.742;2023-10-09T07:13:06;100568.41;;;17.11;45.62
44103;BME280;29769;42.178;24.742;2023-10-09T07:15:51;100562.72;;;17.23;45.10
44103;BME280;29769;42.178;24.742;2023-10-09T07:18:55;100579.00;;;18.02;43.30
44103;BME280;29769;42.178;24.742;2023-10-09T07:21:53;100581.41;;;17.51;43.48
44103;BME280;29769;42.178;24.742;2023-10-09T07:24:38;100563.84;;;17.45;43.94
44103;BME280;29769;42.178;24.742;2023-10-09T07:27:28;100571.34;;;18.19;42.96
44103;BME280;29769;42.178;24.742;2023-10-09T07:30:29;100574.28;;;18.38;41.80
44103;BME280;29769;42.178;24.742;2023-10-09T07:33:13;100574.13;;;19.18;40.53
44103;BME280;29769;42.178;24.742;2023-10-09T07:36:00;100573.28;;;19.41;39.79
44103;BME280;29769;42.178;24.742;2023-10-09T07:38:50;100575.31;;;19.81;38.85
44103;BME280;29769;42.178;24.742;2023-10-09T07:41:40;100567.66;;;21.01;36.82
44103;BME280;29769;42.178;24.742;2023-10-09T07:44:29;100576.34;;;21.06;36.27
44103;BME280;29769;42.178;24.742;2023-10-09T07:47:23;100566.00;;;20.98;36.47
44103;BME280;29769;42.178;24.742;2023-10-09T07:50:28;100567.38;;;22.03;34.70
44103;BME280;29769;42.178;24.742;2023-10-09T07:53:39;100558.09;;;22.46;33.44
44103;BME280;29769;42.178;24.742;2023-10-09T07:56:29;100561.88;;;22.59;33.82
44103;BME280;29769;42.178;24.742;2023-10-09T07:59:22;100563.13;;;22.35;34.02
44103;BME280;29769;42.178;24.742;2023-10-09T08:02:08;100568.72;;;22.31;34.32
44103;BME280;29769;42.178;24.742;2023-10-09T08:04:59;100561.22;;;22.73;33.44
44103;BME280;29769;42.178;24.742;2023-10-09T08:07:48;100557.56;;;23.26;32.66
44103;BME280;29769;42.178;24.742;2023-10-09T08:10:41;100557.50;;;23.43;32.69
44103;BME280;29769;42.178;24.742;2023-10-09T08:13:45;100569.28;;;24.36;31.54
44103;BME280;29769;42.178;24.742;2023-10-09T08:16:35;100563.19;;;25.22;30.20
44103;BME280;29769;42.178;24.742;2023-10-09T08:19:20;100564.13;;;24.93;30.13
44103;BME280;29769;42.178;24.742;2023-10-09T08:22:26;100561.66;;;25.46;29.55
44103;BME280;29769;42.178;24.742;2023-10-09T08:25:12;100558.34;;;25.71;28.94
44103;BME280;29769;42.178;24.742;2023-10-09T08:28:12;100565.03;;;25.36;29.67
44103;BME280;29769;42.178;24.742;2023-10-09T08:31:16;100552.50;;;26.32;28.16
44103;BME280;29769;42.178;24.742;2023-10-09T08:34:05;100551.91;;;26.41;28.59
44103;BME280;29769;42.178;24.742;2023-10-09T08:36:54;100547.41;;;28.06;26.86
44103;BME280;29769;42.178;24.742;2023-10-09T08:39:38;100540.44;;;28.62;25.99
44103;BME280;29769;42.178;24.742;2023-10-09T08:42:23;100545.31;;;28.22;26.10
44103;BME280;29769;42.178;24.742;2023-10-09T08:45:09;100536.78;;;29.09;25.68
44103;BME280;29769;42.178;24.742;2023-10-09T08:48:02;100527.88;;;30.82;24.01
44103;BME280;29769;42.178;24.742;2023-10-09T08:50:50;100535.44;;;29.26;24.90
44103;BME280;29769;42.178;24.742;2023-10-09T08:53:34;100542.84;;;28.07;26.50
44103;BME280;29769;42.178;24.742;2023-10-09T08:56:20;100532.16;;;28.05;26.22
44103;BME280;29769;42.178;24.742;2023-10-09T08:59:08;100523.72;;;29.03;25.43
44103;BME280;29769;42.178;24.742;2023-10-09T09:01:55;100518.78;;;30.09;24.96
44103;BME280;29769;42.178;24.742;2023-10-09T09:04:45;100514.75;;;30.67;24.20
44103;BME280;29769;42.178;24.742;2023-10-09T09:07:35;100520.22;;;30.87;23.76
44103;BME280;29769;42.178;24.742;2023-10-09T09:10:27;100524.81;;;31.38;23.40
44103;BME280;29769;42.178;24.742;2023-10-09T09:13:19;100513.84;;;31.89;22.36
44103;BME280;29769;42.178;24.742;2023-10-09T09:16:04;100510.41;;;30.75;23.67
44103;BME280;29769;42.178;24.742;2023-10-09T09:18:48;100518.13;;;31.21;22.94
44103;BME280;29769;42.178;24.742;2023-10-09T09:21:34;100501.72;;;33.18;21.62
44103;BME280;29769;42.178;24.742;2023-10-09T09:24:28;100500.84;;;33.08;21.46
44103;BME280;29769;42.178;24.742;2023-10-09T09:27:17;100500.94;;;33.63;20.60
44103;BME280;29769;42.178;24.742;2023-10-09T09:30:05;100497.91;;;32.34;22.37
44103;BME280;29769;42.178;24.742;2023-10-09T09:33:17;100491.19;;;32.38;22.67
44103;BME280;29769;42.178;24.742;2023-10-09T09:36:05;100504.69;;;31.50;22.99
44103;BME280;29769;42.178;24.742;2023-10-09T09:38:50;100499.16;;;31.31;23.07
44103;BME280;29769;42.178;24.742;2023-10-09T09:41:36;100487.66;;;30.97;23.47
44103;BME280;29769;42.178;24.742;2023-10-09T09:44:23;100488.53;;;31.18;23.62
44103;BME280;29769;42.178;24.742;2023-10-09T09:47:15;100488.09;;;31.93;22.83
44103;BME280;29769;42.178;24.742;2023-10-09T09:50:09;100489.38;;;31.99;22.63
44103;BME280;29769;42.178;24.742;2023-10-09T09:52:56;100478.19;;;33.44;21.95
44103;BME280;29769;42.178;24.742;2023-10-09T09:55:52;100470.25;;;33.61;21.50
44103;BME280;29769;42.178;24.742;2023-10-09T09:58:41;100464.22;;;34.91;20.54
44103;BME280;29769;42.178;24.742;2023-10-09T10:01:28;100455.28;;;35.82;19.88
44103;BME280;29769;42.178;24.742;2023-10-09T10:04:15;100437.25;;;36.38;19.11
44103;BME280;29769;42.178;24.742;2023-10-09T10:07:06;100441.44;;;35.84;19.79
44103;BME280;29769;42.178;24.742;2023-10-09T10:09:53;100432.78;;;37.57;18.23
44103;BME280;29769;42.178;24.742;2023-10-09T10:18:58;100407.91;;;33.38;21.30
44103;BME280;29769;42.178;24.742;2023-10-09T10:21:55;100400.81;;;32.72;22.12
44103;BME280;29769;42.178;24.742;2023-10-09T10:24:46;100392.13;;;32.39;22.58
44103;BME280;29769;42.178;24.742;2023-10-09T10:27:37;100395.03;;;31.40;23.16
44103;BME280;29769;42.178;24.742;2023-10-09T10:30:48;100387.66;;;33.41;21.26
44103;BME280;29769;42.178;24.742;2023-10-09T10:36:39;100384.78;;;34.92;20.30
44103;BME280;29769;42.178;24.742;2023-10-09T10:39:27;100370.47;;;34.72;20.03
44103;BME280;29769;42.178;24.742;2023-10-09T10:42:32;100373.50;;;32.35;22.03
44103;BME280;29769;42.178;24.742;2023-10-09T10:45:19;100369.25;;;33.88;21.07
44103;BME280;29769;42.178;24.742;2023-10-09T10:48:19;100365.56;;;33.62;21.01
44103;BME280;29769;42.178;24.742;2023-10-09T10:51:21;100363.81;;;33.43;20.98
44103;BME280;29769;42.178;24.742;2023-10-09T10:54:07;100354.25;;;35.39;20.00
44103;BME280;29769;42.178;24.742;2023-10-09T10:57:20;100352.25;;;34.29;20.39
44103;BME280;29769;42.178;24.742;2023-10-09T11:00:21;100348.28;;;34.75;19.96
44103;BME280;29769;42.178;24.742;2023-10-09T11:03:25;100336.63;;;32.50;21.96
44103;BME280;29769;42.178;24.742;2023-10-09T11:06:39;100328.28;;;32.14;22.39
44103;BME280;29769;42.178;24.742;2023-10-09T11:09:26;100331.28;;;31.83;22.54
44103;BME280;29769;42.178;24.742;2023-10-09T11:12:19;100332.06;;;32.97;21.95
44103;BME280;29769;42.178;24.742;2023-10-09T11:18:07;100319.88;;;33.64;20.80
44103;BME280;29769;42.178;24.742;2023-10-09T11:20:53;100312.06;;;34.04;20.59
44103;BME280;29769;42.178;24.742;2023-10-09T11:24:01;100311.09;;;34.13;20.16
44103;BME280;29769;42.178;24.742;2023-10-09T11:27:05;100291.97;;;33.34;20.79
44103;BME280;29769;42.178;24.742;2023-10-09T11:29:51;100298.97;;;34.59;19.93
44103;BME280;29769;42.178;24.742;2023-10-09T11:32:35;100282.50;;;34.17;20.10
44103;BME280;29769;42.178;24.742;2023-10-09T11:35:22;100274.81;;;33.24;20.72
44103;BME280;29769;42.178;24.742;2023-10-09T11:38:13;100264.72;;;32.43;21.89
44103;BME280;29769;42.178;24.742;2023-10-09T11:41:11;100248.88;;;33.73;20.38
44103;BME280;29769;42.178;24.742;2023-10-09T11:44:04;100251.47;;;34.18;19.84
44103;BME280;29769;42.178;24.742;2023-10-09T11:47:01;100241.91;;;36.13;19.17
44103;BME280;29769;42.178;24.742;2023-10-09T11:50:08;100236.13;;;37.02;18.12
44103;BME280;29769;42.178;24.742;2023-10-09T11:52:56;100241.41;;;35.61;18.70
44103;BME280;29769;42.178;24.742;2023-10-09T11:55:53;100249.31;;;34.64;19.44
44103;BME280;29769;42.178;24.742;2023-10-09T11:58:37;100241.50;;;33.91;20.41
44103;BME280;29769;42.178;24.742;2023-10-09T12:01:24;100227.94;;;34.93;19.89
44103;BME280;29769;42.178;24.742;2023-10-09T12:04:10;100215.94;;;35.77;18.95
44103;BME280;29769;42.178;24.742;2023-10-09T12:06:57;100221.06;;;36.59;18.20
44103;BME280;29769;42.178;24.742;2023-10-09T12:09:50;100220.53;;;37.33;17.21
44103;BME280;29769;42.178;24.742;2023-10-09T12:12:40;100207.78;;;37.18;17.42
44103;BME280;29769;42.178;24.742;2023-10-09T12:15:31;100205.22;;;37.62;17.13
44103;BME280;29769;42.178;24.742;2023-10-09T12:18:21;100191.13;;;38.17;17.02
44103;BME280;29769;42.178;24.742;2023-10-09T12:21:08;100193.03;;;38.75;16.45
44103;BME280;29769;42.178;24.742;2023-10-09T12:23:52;100197.69;;;38.16;16.39
44103;BME280;29769;42.178;24.742;2023-10-09T12:26:41;100188.31;;;36.27;17.56
44103;BME280;29769;42.178;24.742;2023-10-09T12:29:28;100180.34;;;35.93;18.08
44103;BME280;29769;42.178;24.742;2023-10-09T12:32:14;100175.78;;;33.41;20.06
44103;BME280;29769;42.178;24.742;2023-10-09T12:35:04;100177.72;;;33.31;20.49
44103;BME280;29769;42.178;24.742;2023-10-09T12:37:52;100180.81;;;32.56;20.47
44103;BME280;29769;42.178;24.742;2023-10-09T12:40:39;100170.28;;;33.16;20.89
44103;BME280;29769;42.178;24.742;2023-10-09T12:43:26;100152.47;;;34.58;19.40
44103;BME280;29769;42.178;24.742;2023-10-09T12:46:12;100156.41;;;35.79;18.57
44103;BME280;29769;42.178;24.742;2023-10-09T12:49:00;100151.06;;;32.72;20.82
44103;BME280;29769;42.178;24.742;2023-10-09T12:51:45;100153.31;;;30.99;22.29
44103;BME280;29769;42.178;24.742;2023-10-09T12:54:30;100151.72;;;31.83;21.54
44103;BME280;29769;42.178;24.742;2023-10-09T12:57:15;100148.50;;;32.16;21.86
44103;BME280;29769;42.178;24.742;2023-10-09T12:59:59;100138.38;;;32.26;21.30
44103;BME280;29769;42.178;24.742;2023-10-09T13:02:44;100136.72;;;31.78;21.75
44103;BME280;29769;42.178;24.742;2023-10-09T13:05:29;100141.19;;;31.41;21.91
44103;BME280;29769;42.178;24.742;2023-10-09T13:08:14;100124.56;;;30.48;22.78
44103;BME280;29769;42.178;24.742;2023-10-09T13:11:02;100116.41;;;31.44;22.01
44103;BME280;29769;42.178;24.742;2023-10-09T13:13:54;100110.97;;;32.37;21.42
44103;BME280;29769;42.178;24.742;2023-10-09T13:16:39;100106.53;;;32.81;21.30
44103;BME280;29769;42.178;24.742;2023-10-09T13:19:25;100098.25;;;30.58;22.83
44103;BME280;29769;42.178;24.742;2023-10-09T13:22:09;100100.16;;;30.27;22.92
44103;BME280;29769;42.178;24.742;2023-10-09T13:24:57;100095.88;;;30.25;23.52
44103;BME280;29769;42.178;24.742;2023-10-09T13:27:48;100096.75;;;30.25;23.28
44103;BME280;29769;42.178;24.742;2023-10-09T13:30:37;100094.53;;;30.50;22.83
44103;BME280;29769;42.178;24.742;2023-10-09T13:33:23;100086.75;;;29.65;23.74
44103;BME280;29769;42.178;24.742;2023-10-09T13:36:11;100095.59;;;29.67;23.68
44103;BME280;29769;42.178;24.742;2023-10-09T13:39:11;100080.53;;;30.64;23.09
44103;BME280;29769;42.178;24.742;2023-10-09T13:42:11;100077.25;;;31.27;22.36
44103;BME280;29769;42.178;24.742;2023-10-09T13:44:56;100070.91;;;31.65;21.87
44103;BME280;29769;42.178;24.742;2023-10-09T13:47:41;100077.97;;;31.86;21.92
44103;BME280;29769;42.178;24.742;2023-10-09T13:50:28;100071.66;;;31.85;21.92
44103;BME280;29769;42.178;24.742;2023-10-09T13:53:17;100064.56;;;30.80;22.53
44103;BME280;29769;42.178;24.742;2023-10-09T13:56:02;100057.09;;;30.82;22.87
44103;BME280;29769;42.178;24.742;2023-10-09T13:58:50;100046.34;;;29.32;23.76
44103;BME280;29769;42.178;24.742;2023-10-09T14:01:36;100046.16;;;28.28;24.84
44103;BME280;29769;42.178;24.742;2023-10-09T14:04:21;100044.94;;;28.10;25.46
44103;BME280;29769;42.178;24.742;2023-10-09T14:07:07;100034.28;;;27.97;25.34
44103;BME280;29769;42.178;24.742;2023-10-09T14:09:52;100038.00;;;27.74;25.70
44103;BME280;29769;42.178;24.742;2023-10-09T14:12:40;100029.72;;;27.20;26.23
44103;BME280;29769;42.178;24.742;2023-10-09T14:15:26;100030.88;;;27.51;25.97
44103;BME280;29769;42.178;24.742;2023-10-09T14:18:11;100028.19;;;26.93;26.86
44103;BME280;29769;42.178;24.742;2023-10-09T14:20:56;100028.59;;;27.11;26.91
44103;BME280;29769;42.178;24.742;2023-10-09T14:23:41;100026.16;;;27.30;26.71
44103;BME280;29769;42.178;24.742;2023-10-09T14:26:30;100024.34;;;27.53;26.64
44103;BME280;29769;42.178;24.742;2023-10-09T14:29:18;100028.25;;;27.16;26.85
44103;BME280;29769;42.178;24.742;2023-10-09T14:32:03;100029.47;;;27.34;26.40
44103;BME280;29769;42.178;24.742;2023-10-09T14:34:48;100029.34;;;27.35;26.50
44103;BME280;29769;42.178;24.742;2023-10-09T14:37:37;100027.34;;;27.04;26.71
44103;BME280;29769;42.178;24.742;2023-10-09T14:40:24;100010.88;;;26.61;27.32
44103;BME280;29769;42.178;24.742;2023-10-09T14:43:16;100016.66;;;26.68;27.25
44103;BME280;29769;42.178;24.742;2023-10-09T14:46:03;100016.56;;;26.80;27.25
44103;BME280;29769;42.178;24.742;2023-10-09T14:48:55;100022.56;;;26.49;27.40
44103;BME280;29769;42.178;24.742;2023-10-09T14:51:39;100022.47;;;26.27;27.87
44103;BME280;29769;42.178;24.742;2023-10-09T14:54:25;100027.91;;;25.78;28.12
44103;BME280;29769;42.178;24.742;2023-10-09T14:57:10;100018.13;;;25.39;29.15